createdAt,value
2018-10-11T00:00:20.346Z,16.82
2018-10-11T00:01:20.200Z,16.76
2018-10-11T00:02:20.334Z,16.71
2018-10-11T00:03:20.240Z,16.68
2018-10-11T00:04:20.251Z,16.65
2018-10-11T00:05:20.297Z,16.64
2018-10-11T00:06:20.224Z,16.6
2018-10-11T00:07:20.296Z,16.59
2018-10-11T00:08:20.191Z,16.56
2018-10-11T00:09:20.448Z,16.55
2018-10-11T00:10:20.186Z,16.53
2018-10-11T00:11:20.171Z,16.53
2018-10-11T00:12:20.211Z,16.49
2018-10-11T00:13:20.276Z,16.49
2018-10-11T00:14:20.170Z,16.45
2018-10-11T00:15:20.574Z,16.48
2018-10-11T00:16:20.604Z,16.46
2018-10-11T00:17:20.199Z,16.45
2018-10-11T00:18:20.157Z,16.44
2018-10-11T00:19:20.203Z,16.44
2018-10-11T00:20:20.221Z,16.42
2018-10-11T00:21:20.181Z,16.4
2018-10-11T00:22:20.164Z,16.41
2018-10-11T00:23:20.167Z,16.38
2018-10-11T00:24:20.138Z,16.38
2018-10-11T00:25:20.214Z,16.4
2018-10-11T00:26:20.205Z,16.37
2018-10-11T00:27:20.231Z,16.39
2018-10-11T00:28:20.147Z,16.38
2018-10-11T00:29:20.216Z,16.37
2018-10-11T00:30:20.156Z,16.38
2018-10-11T00:31:20.223Z,16.37
2018-10-11T00:32:20.244Z,16.4
2018-10-11T00:33:20.173Z,16.38
2018-10-11T00:34:20.187Z,16.41
2018-10-11T00:35:20.183Z,16.41
2018-10-11T00:36:20.337Z,16.42
2018-10-11T00:37:20.234Z,16.42
2018-10-11T00:38:20.584Z,16.4
2018-10-11T00:39:20.396Z,16.4
2018-10-11T00:40:20.150Z,16.41
2018-10-11T00:41:20.132Z,16.34
2018-10-11T00:42:20.387Z,16.34
2018-10-11T00:43:23.317Z,16.35
2018-10-11T00:44:20.173Z,16.35
2018-10-11T00:45:20.142Z,16.35
2018-10-11T00:46:20.780Z,16.35
2018-10-11T00:47:20.217Z,16.31
2018-10-11T00:48:20.301Z,16.19
2018-10-11T00:49:20.625Z,16.19
2018-10-11T00:50:20.133Z,16.15
2018-10-11T00:51:20.384Z,16.07
2018-10-11T00:52:20.185Z,15.98
2018-10-11T00:53:20.292Z,16
2018-10-11T00:54:20.232Z,15.97
2018-10-11T00:55:20.307Z,15.92
2018-10-11T00:56:20.502Z,15.9
2018-10-11T00:57:20.195Z,15.83
2018-10-11T00:58:20.185Z,15.82
2018-10-11T00:59:20.191Z,15.79
2018-10-11T01:00:20.223Z,15.77
2018-10-11T01:01:20.071Z,15.79
2018-10-11T01:02:20.224Z,15.77
2018-10-11T01:03:20.128Z,15.8
2018-10-11T01:04:20.229Z,15.8
2018-10-11T01:05:20.105Z,15.77
2018-10-11T01:06:20.311Z,15.78
2018-10-11T01:07:20.248Z,15.77
2018-10-11T01:08:20.142Z,15.77
2018-10-11T01:09:21.399Z,15.79
2018-10-11T01:10:20.174Z,15.8
2018-10-11T01:11:20.340Z,15.78
2018-10-11T01:12:20.172Z,15.74
2018-10-11T01:13:20.563Z,15.74
2018-10-11T01:14:20.086Z,15.74
2018-10-11T01:15:20.114Z,15.73
2018-10-11T01:16:20.423Z,15.74
2018-10-11T01:17:20.180Z,15.72
2018-10-11T01:18:20.090Z,15.73
2018-10-11T01:19:20.090Z,15.73
2018-10-11T01:20:20.277Z,15.75
2018-10-11T01:21:20.247Z,15.76
2018-10-11T01:22:20.226Z,15.76
2018-10-11T01:23:20.477Z,15.78
2018-10-11T01:24:20.181Z,15.79
2018-10-11T01:25:20.190Z,15.81
2018-10-11T01:26:20.077Z,15.81
2018-10-11T01:27:20.208Z,15.81
2018-10-11T01:28:20.344Z,15.84
2018-10-11T01:29:20.303Z,15.82
2018-10-11T01:30:20.200Z,15.83
2018-10-11T01:31:20.139Z,15.81
2018-10-11T01:32:20.829Z,15.81
2018-10-11T01:33:20.184Z,15.84
2018-10-11T01:34:20.166Z,15.85
2018-10-11T01:35:20.221Z,15.88
2018-10-11T01:36:20.491Z,15.87
2018-10-11T01:37:20.442Z,15.88
2018-10-11T01:38:20.212Z,15.88
2018-10-11T01:39:20.102Z,15.86
2018-10-11T01:40:20.132Z,15.86
2018-10-11T01:41:20.195Z,15.86
2018-10-11T01:42:20.092Z,15.86
2018-10-11T01:43:20.149Z,15.83
2018-10-11T01:44:20.138Z,15.85
2018-10-11T01:45:20.103Z,15.84
2018-10-11T01:46:20.150Z,15.84
2018-10-11T01:47:20.126Z,15.81
2018-10-11T01:48:20.121Z,15.79
2018-10-11T01:49:20.094Z,15.79
2018-10-11T01:50:20.105Z,15.79
2018-10-11T01:51:20.425Z,15.8
2018-10-11T01:52:20.091Z,15.81
2018-10-11T01:53:20.041Z,15.8
2018-10-11T01:54:20.049Z,15.8
2018-10-11T01:55:20.099Z,15.81
2018-10-11T01:56:20.061Z,15.81
2018-10-11T01:57:20.062Z,15.84
2018-10-11T01:58:20.141Z,15.83
2018-10-11T01:59:20.013Z,15.85
2018-10-11T02:00:20.031Z,15.86
2018-10-11T02:01:20.204Z,15.85
2018-10-11T02:02:20.036Z,15.84
2018-10-11T02:03:20.105Z,15.86
2018-10-11T02:04:20.286Z,15.86
2018-10-11T02:05:20.207Z,15.88
2018-10-11T02:06:20.076Z,15.9
2018-10-11T02:07:20.147Z,15.89
2018-10-11T02:08:20.457Z,15.89
2018-10-11T02:09:21.309Z,15.87
2018-10-11T02:10:20.207Z,15.9
2018-10-11T02:11:20.160Z,15.9
2018-10-11T02:12:20.399Z,15.91
2018-10-11T02:13:20.231Z,15.91
2018-10-11T02:14:20.433Z,15.9
2018-10-11T02:15:20.134Z,15.9
2018-10-11T02:16:20.007Z,15.89
2018-10-11T02:17:20.192Z,15.86
2018-10-11T02:18:20.308Z,15.85
2018-10-11T02:19:20.678Z,15.87
2018-10-11T02:20:20.158Z,15.85
2018-10-11T02:21:20.290Z,15.85
2018-10-11T02:22:20.081Z,15.85
2018-10-11T02:23:20.003Z,15.83
2018-10-11T02:24:20.396Z,15.83
2018-10-11T02:25:20.121Z,15.84
2018-10-11T02:26:20.016Z,15.84
2018-10-11T02:27:20.177Z,15.84
2018-10-11T02:28:20.130Z,15.83
2018-10-11T02:29:20.168Z,15.82
2018-10-11T02:30:20.024Z,15.8
2018-10-11T02:31:20.240Z,15.8
2018-10-11T02:32:20.025Z,15.79
2018-10-11T02:33:20.064Z,15.79
2018-10-11T02:34:20.002Z,15.78
2018-10-11T02:35:20.116Z,15.78
2018-10-11T02:36:20.024Z,15.78
2018-10-11T02:37:20.234Z,15.79
2018-10-11T02:38:20.150Z,15.78
2018-10-11T02:39:20.184Z,15.79
2018-10-11T02:40:20.173Z,15.78
2018-10-11T02:41:20.171Z,15.78
2018-10-11T02:42:20.148Z,15.74
2018-10-11T02:43:20.083Z,15.73
2018-10-11T02:44:20.296Z,15.73
2018-10-11T02:45:20.136Z,15.73
2018-10-11T02:46:19.986Z,15.73
2018-10-11T02:47:20.240Z,15.73
2018-10-11T02:48:20.760Z,15.72
2018-10-11T02:49:20.066Z,15.71
2018-10-11T02:50:19.980Z,15.71
2018-10-11T02:51:19.976Z,15.68
2018-10-11T02:52:20.237Z,15.67
2018-10-11T02:53:20.093Z,15.65
2018-10-11T02:54:20.161Z,15.64
2018-10-11T02:55:20.123Z,15.61
2018-10-11T02:56:20.044Z,15.61
2018-10-11T02:57:20.116Z,15.6
2018-10-11T02:58:20.095Z,15.58
2018-10-11T02:59:19.981Z,15.54
2018-10-11T03:00:20.073Z,15.48
2018-10-11T03:01:19.998Z,15.46
2018-10-11T03:02:20.171Z,15.46
2018-10-11T03:03:20.116Z,15.42
2018-10-11T03:04:20.187Z,15.41
2018-10-11T03:05:20.177Z,15.4
2018-10-11T03:06:20.083Z,15.41
2018-10-11T03:07:20.102Z,15.4
2018-10-11T03:08:20.142Z,15.37
2018-10-11T03:09:20.038Z,15.35
2018-10-11T03:10:19.933Z,15.33
2018-10-11T03:11:20.111Z,15.29
2018-10-11T03:12:19.953Z,15.28
2018-10-11T03:13:20.023Z,15.25
2018-10-11T03:14:20.040Z,15.23
2018-10-11T03:15:19.960Z,15.19
2018-10-11T03:16:19.971Z,15.18
2018-10-11T03:17:19.977Z,15.17
2018-10-11T03:18:19.980Z,15.15
2018-10-11T03:19:20.268Z,15.14
2018-10-11T03:20:19.969Z,15.11
2018-10-11T03:21:20.148Z,15.1
2018-10-11T03:22:20.089Z,15.09
2018-10-11T03:23:19.925Z,15.06
2018-10-11T03:24:20.585Z,15.05
2018-10-11T03:25:19.926Z,15.04
2018-10-11T03:26:19.982Z,15.03
2018-10-11T03:27:19.917Z,15.02
2018-10-11T03:28:19.988Z,15
2018-10-11T03:29:20.100Z,15.02
2018-10-11T03:30:20.096Z,15
2018-10-11T03:31:20.423Z,14.99
2018-10-11T03:32:20.122Z,14.98
2018-10-11T03:33:20.021Z,14.95
2018-10-11T03:34:20.227Z,14.97
2018-10-11T03:35:20.302Z,14.97
2018-10-11T03:36:19.955Z,14.98
2018-10-11T03:37:19.952Z,14.97
2018-10-11T03:38:20.370Z,14.97
2018-10-11T03:39:20.086Z,14.97
2018-10-11T03:40:19.960Z,14.96
2018-10-11T03:41:19.885Z,14.95
2018-10-11T03:42:20.091Z,14.93
2018-10-11T03:43:20.036Z,14.95
2018-10-11T03:44:19.885Z,14.93
2018-10-11T03:45:19.974Z,14.93
2018-10-11T03:46:20.208Z,14.96
2018-10-11T03:47:20.202Z,14.93
2018-10-11T03:48:19.880Z,14.95
2018-10-11T03:49:19.881Z,14.91
2018-10-11T03:50:20.136Z,14.91
2018-10-11T03:51:20.017Z,14.91
2018-10-11T03:52:19.996Z,14.87
2018-10-11T03:53:20.156Z,14.85
2018-10-11T03:54:20.247Z,14.82
2018-10-11T03:55:19.933Z,14.81
2018-10-11T03:56:19.966Z,14.74
2018-10-11T03:57:20.053Z,14.55
2018-10-11T03:58:20.115Z,14.51
2018-10-11T03:59:20.092Z,14.53
2018-10-11T04:00:19.884Z,14.5
2018-10-11T04:01:19.912Z,14.5
2018-10-11T04:02:19.945Z,14.49
2018-10-11T04:03:20.118Z,14.45
2018-10-11T04:04:20.235Z,14.39
2018-10-11T04:05:19.868Z,14.33
2018-10-11T04:06:19.910Z,14.2
2018-10-11T04:07:20.083Z,14.17
2018-10-11T04:08:20.529Z,14.15
2018-10-11T04:09:19.901Z,14.17
2018-10-11T04:10:19.981Z,14.11
2018-10-11T04:11:19.884Z,14.03
2018-10-11T04:12:19.952Z,13.96
2018-10-11T04:13:20.016Z,13.94
2018-10-11T04:14:19.926Z,13.95
2018-10-11T04:15:20.332Z,13.87
2018-10-11T04:16:19.884Z,13.81
2018-10-11T04:17:19.985Z,13.67
2018-10-11T04:18:19.917Z,13.52
2018-10-11T04:19:20.118Z,13.42
2018-10-11T04:20:19.946Z,13.32
2018-10-11T04:21:19.952Z,13.31
2018-10-11T04:22:20.112Z,13.29
2018-10-11T04:23:19.850Z,13.3
2018-10-11T04:24:19.968Z,13.33
2018-10-11T04:25:19.844Z,13.36
2018-10-11T04:26:19.938Z,13.39
2018-10-11T04:27:19.840Z,13.36
2018-10-11T04:28:20.042Z,13.32
2018-10-11T04:29:19.875Z,13.3
2018-10-11T04:30:19.963Z,13.32
2018-10-11T04:31:19.928Z,13.31
2018-10-11T04:32:19.866Z,13.25
2018-10-11T04:33:20.087Z,13.22
2018-10-11T04:34:19.883Z,13.25
2018-10-11T04:35:20.137Z,13.28
2018-10-11T04:36:20.238Z,13.32
2018-10-11T04:37:19.858Z,13.35
2018-10-11T04:38:19.891Z,13.4
2018-10-11T04:39:19.871Z,13.42
2018-10-11T04:40:19.830Z,13.47
2018-10-11T04:41:19.818Z,13.49
2018-10-11T04:42:20.019Z,13.5
2018-10-11T04:43:20.642Z,13.5
2018-10-11T04:44:19.790Z,13.52
2018-10-11T04:45:19.824Z,13.57
2018-10-11T04:46:19.822Z,13.59
2018-10-11T04:47:19.795Z,13.64
2018-10-11T04:48:19.798Z,13.63
2018-10-11T04:49:19.799Z,13.67
2018-10-11T04:50:19.804Z,13.69
2018-10-11T04:51:19.825Z,13.69
2018-10-11T04:52:20.157Z,13.73
2018-10-11T04:53:19.782Z,13.74
2018-10-11T04:54:19.896Z,13.73
2018-10-11T04:55:19.797Z,13.75
2018-10-11T04:56:19.822Z,13.76
2018-10-11T04:57:19.924Z,13.78
2018-10-11T04:58:19.999Z,13.78
2018-10-11T04:59:19.873Z,13.79
2018-10-11T05:00:19.849Z,13.79
2018-10-11T05:01:19.931Z,13.79
2018-10-11T05:02:19.973Z,13.79
2018-10-11T05:03:20.133Z,13.8
2018-10-11T05:04:20.389Z,13.8
2018-10-11T05:05:20.566Z,13.82
2018-10-11T05:06:20.124Z,13.81
2018-10-11T05:07:23.011Z,13.81
2018-10-11T05:08:19.794Z,13.84
2018-10-11T05:09:20.041Z,13.86
2018-10-11T05:10:19.764Z,13.88
2018-10-11T05:11:19.884Z,13.9
2018-10-11T05:12:19.883Z,13.9
2018-10-11T05:13:20.114Z,13.89
2018-10-11T05:14:20.081Z,13.89
2018-10-11T05:15:20.491Z,13.92
2018-10-11T05:16:19.898Z,13.92
2018-10-11T05:17:20.409Z,13.92
2018-10-11T05:18:19.885Z,13.92
2018-10-11T05:19:19.791Z,13.92
2018-10-11T05:20:20.026Z,13.94
2018-10-11T05:21:20.242Z,13.93
2018-10-11T05:22:20.006Z,13.93
2018-10-11T05:23:19.873Z,13.91
2018-10-11T05:24:19.789Z,13.92
2018-10-11T05:25:19.845Z,13.92
2018-10-11T05:26:19.810Z,13.89
2018-10-11T05:27:19.961Z,13.88
2018-10-11T05:28:19.909Z,13.88
2018-10-11T05:29:19.824Z,13.87
2018-10-11T05:30:19.969Z,13.86
2018-10-11T05:31:19.766Z,13.88
2018-10-11T05:32:20.668Z,13.86
2018-10-11T05:33:19.901Z,13.86
2018-10-11T05:34:19.986Z,13.87
2018-10-11T05:35:20.060Z,13.87
2018-10-11T05:36:19.773Z,13.86
2018-10-11T05:37:19.798Z,13.85
2018-10-11T05:38:21.306Z,13.83
2018-10-11T05:39:19.930Z,13.83
2018-10-11T05:40:19.768Z,13.81
2018-10-11T05:41:19.762Z,13.81
2018-10-11T05:42:19.819Z,13.81
2018-10-11T05:43:19.787Z,13.77
2018-10-11T05:44:20.327Z,13.79
2018-10-11T05:45:19.801Z,13.79
2018-10-11T05:46:19.893Z,13.78
2018-10-11T05:47:19.782Z,13.75
2018-10-11T05:48:19.873Z,13.75
2018-10-11T05:49:19.922Z,13.74
2018-10-11T05:50:20.851Z,13.73
2018-10-11T05:51:19.719Z,13.75
2018-10-11T05:52:19.732Z,13.75
2018-10-11T05:53:19.819Z,13.77
2018-10-11T05:54:19.853Z,13.78
2018-10-11T05:55:19.768Z,13.78
2018-10-11T05:56:20.091Z,13.76
2018-10-11T05:57:19.687Z,13.75
2018-10-11T05:58:19.855Z,13.74
2018-10-11T05:59:19.733Z,13.74
2018-10-11T06:00:19.824Z,13.74
2018-10-11T06:01:19.704Z,13.74
2018-10-11T06:02:19.710Z,13.74
2018-10-11T06:03:19.716Z,13.74
2018-10-11T06:04:20.665Z,13.75
2018-10-11T06:05:19.729Z,13.74
2018-10-11T06:06:19.728Z,13.75
2018-10-11T06:07:20.043Z,13.75
2018-10-11T06:08:19.773Z,13.73
2018-10-11T06:09:19.696Z,13.72
2018-10-11T06:10:19.702Z,13.73
2018-10-11T06:11:19.692Z,13.76
2018-10-11T06:12:19.739Z,13.78
2018-10-11T06:13:19.748Z,13.76
2018-10-11T06:14:19.704Z,13.76
2018-10-11T06:15:19.687Z,13.76
2018-10-11T06:16:19.727Z,13.73
2018-10-11T06:17:19.743Z,13.75
2018-10-11T06:18:19.821Z,13.74
2018-10-11T06:19:19.687Z,13.74
2018-10-11T06:20:19.924Z,13.72
2018-10-11T06:21:19.782Z,13.7
2018-10-11T06:22:19.897Z,13.7
2018-10-11T06:23:19.868Z,13.7
2018-10-11T06:24:19.860Z,13.69
2018-10-11T06:25:20.253Z,13.69
2018-10-11T06:26:20.080Z,13.73
2018-10-11T06:27:19.801Z,13.71
2018-10-11T06:28:19.676Z,13.73
2018-10-11T06:29:19.693Z,13.75
2018-10-11T06:30:20.944Z,13.74
2018-10-11T06:31:19.700Z,13.78
2018-10-11T06:32:19.900Z,13.77
2018-10-11T06:33:19.793Z,13.78
2018-10-11T06:34:19.669Z,13.77
2018-10-11T06:35:19.753Z,13.8
2018-10-11T06:36:20.145Z,13.82
2018-10-11T06:37:19.782Z,13.81
2018-10-11T06:38:19.683Z,13.81
2018-10-11T06:39:19.810Z,13.78
2018-10-11T06:40:19.959Z,13.74
2018-10-11T06:41:19.897Z,13.71
2018-10-11T06:42:21.240Z,13.65
2018-10-11T06:43:20.260Z,13.62
2018-10-11T06:44:19.834Z,13.61
2018-10-11T06:45:19.721Z,13.6
2018-10-11T06:46:19.746Z,13.61
2018-10-11T06:47:19.991Z,13.62
2018-10-11T06:48:19.757Z,13.64
2018-10-11T06:49:20.547Z,13.63
2018-10-11T06:50:20.452Z,13.66
2018-10-11T06:51:19.782Z,13.65
2018-10-11T06:52:19.697Z,13.66
2018-10-11T06:53:19.930Z,13.66
2018-10-11T06:54:19.662Z,13.68
2018-10-11T06:55:19.711Z,13.7
2018-10-11T06:56:19.651Z,13.71
2018-10-11T06:57:19.730Z,13.71
2018-10-11T06:58:19.698Z,13.71
2018-10-11T06:59:19.645Z,13.74
2018-10-11T07:00:19.803Z,13.76
2018-10-11T07:01:19.978Z,13.76
2018-10-11T07:02:19.778Z,13.78
2018-10-11T07:03:19.639Z,13.82
2018-10-11T07:04:19.646Z,13.83
2018-10-11T07:05:19.741Z,13.84
2018-10-11T07:06:19.749Z,13.88
2018-10-11T07:07:20.235Z,13.88
2018-10-11T07:08:19.647Z,13.9
2018-10-11T07:09:19.767Z,13.93
2018-10-11T07:10:19.652Z,13.94
2018-10-11T07:11:19.655Z,13.94
2018-10-11T07:12:20.410Z,13.95
2018-10-11T07:13:19.754Z,13.99
2018-10-11T07:14:19.655Z,13.99
2018-10-11T07:15:19.763Z,13.98
2018-10-11T07:16:19.713Z,14.04
2018-10-11T07:17:19.735Z,14.02
2018-10-11T07:18:19.721Z,14.05
2018-10-11T07:19:20.313Z,14.06
2018-10-11T07:20:20.276Z,14.08
2018-10-11T07:21:19.763Z,14.08
2018-10-11T07:22:19.643Z,14.12
2018-10-11T07:23:19.589Z,14.13
2018-10-11T07:24:19.568Z,14.14
2018-10-11T07:25:19.628Z,14.15
2018-10-11T07:26:19.581Z,14.18
2018-10-11T07:37:20.212Z,14.46
2018-10-11T07:38:19.658Z,14.48
2018-10-11T07:39:19.622Z,14.48
2018-10-11T07:40:20.668Z,14.51
2018-10-11T07:41:19.569Z,14.5
2018-10-11T07:42:19.716Z,14.54
2018-10-11T07:43:20.413Z,14.57
2018-10-11T07:44:19.761Z,14.59
2018-10-11T07:45:19.563Z,14.57
2018-10-11T07:46:19.587Z,14.6
2018-10-11T07:47:19.766Z,14.59
2018-10-11T07:48:19.676Z,14.57
2018-10-11T07:49:19.814Z,14.57
2018-10-11T07:50:19.594Z,14.59
2018-10-11T07:51:20.393Z,14.59
2018-10-11T07:52:19.703Z,14.6
2018-10-11T07:53:19.716Z,14.62
2018-10-11T07:54:19.602Z,14.66
2018-10-11T07:55:19.586Z,14.64
2018-10-11T07:56:19.612Z,14.66
2018-10-11T07:57:19.881Z,14.67
2018-10-11T07:58:44.738Z,14.73
2018-10-11T07:59:44.548Z,14.72
2018-10-11T08:00:44.274Z,14.73
2018-10-11T08:01:45.355Z,14.74
2018-10-11T08:02:44.481Z,14.75
2018-10-11T08:03:44.655Z,14.76
2018-10-11T08:04:44.302Z,14.79
2018-10-11T08:05:44.380Z,14.81
2018-10-11T08:06:44.699Z,14.84
2018-10-11T08:07:45.368Z,14.83
2018-10-11T08:08:44.374Z,14.87
2018-10-11T08:09:44.549Z,14.87
2018-10-11T08:10:45.067Z,14.9
2018-10-11T08:11:45.831Z,14.91
2018-10-11T08:12:44.624Z,14.91
2018-10-11T08:13:44.334Z,14.93
2018-10-11T08:14:44.592Z,14.92
2018-10-11T08:15:44.893Z,14.94
2018-10-11T08:16:46.500Z,14.96
2018-10-11T08:17:49.402Z,14.97
2018-10-11T08:18:45.218Z,15
2018-10-11T08:19:45.514Z,14.99
2018-10-11T08:20:44.245Z,15.01
2018-10-11T08:21:45.486Z,15.03
2018-10-11T08:22:44.617Z,15.03
2018-10-11T08:23:44.433Z,15.04
2018-10-11T08:24:45.843Z,15.03
2018-10-11T08:25:49.452Z,15.03
2018-10-11T08:26:45.369Z,15.05
2018-10-11T08:27:44.460Z,15.08
2018-10-11T08:28:44.358Z,15.08
2018-10-11T08:29:44.235Z,15.06
2018-10-11T08:30:44.249Z,15.09
2018-10-11T08:31:46.054Z,15.1
2018-10-11T08:32:45.505Z,15.14
2018-10-11T08:33:44.327Z,15.12
2018-10-11T08:34:44.269Z,15.1
2018-10-11T08:35:44.359Z,15.09
2018-10-11T08:36:44.327Z,15.12
2018-10-11T08:37:45.900Z,15.11
2018-10-11T08:38:44.714Z,15.13
2018-10-11T08:39:44.361Z,15.16
2018-10-11T08:40:44.553Z,15.15
2018-10-11T08:41:44.423Z,15.17
2018-10-11T08:42:44.274Z,15.22
2018-10-11T08:43:45.105Z,15.24
2018-10-11T08:44:44.298Z,15.28
2018-10-11T08:45:44.262Z,15.29
2018-10-11T08:46:44.250Z,15.35
2018-10-11T08:47:44.363Z,15.38
2018-10-11T08:48:44.253Z,15.43
2018-10-11T08:49:44.371Z,15.43
2018-10-11T08:50:45.826Z,15.47
2018-10-11T08:51:44.215Z,15.48
2018-10-11T08:52:44.697Z,15.49
2018-10-11T08:53:45.275Z,15.55
2018-10-11T08:54:44.195Z,15.58
2018-10-11T08:55:45.932Z,15.6
2018-10-11T08:56:44.317Z,15.64
2018-10-11T08:57:44.356Z,15.65
2018-10-11T08:58:44.336Z,15.65
2018-10-11T08:59:45.300Z,15.65
2018-10-11T09:00:44.314Z,15.7
2018-10-11T09:01:44.355Z,15.72
2018-10-11T09:02:44.236Z,15.74
2018-10-11T09:03:46.636Z,15.76
2018-10-11T09:04:44.223Z,15.77
2018-10-11T09:05:44.179Z,15.8
2018-10-11T09:06:44.515Z,15.85
2018-10-11T09:07:50.823Z,15.91
2018-10-11T09:09:44.233Z,15.9
2018-10-11T09:11:18.741Z,15.92
2018-10-11T09:11:47.638Z,15.97
2018-10-11T09:12:44.872Z,15.95
2018-10-11T09:13:44.337Z,16.02
2018-10-11T09:14:44.573Z,16.04
2018-10-11T09:15:45.101Z,16.09
2018-10-11T09:16:46.414Z,16.09
2018-10-11T09:17:44.397Z,16.07
2018-10-11T09:18:45.370Z,16.06
2018-10-11T09:19:45.078Z,16.1
2018-10-11T09:20:44.495Z,16.12
2018-10-11T09:21:44.398Z,16.17
2018-10-11T09:22:45.468Z,16.22
2018-10-11T09:23:44.291Z,16.28
2018-10-11T09:24:44.475Z,16.32
2018-10-11T09:25:44.214Z,16.38
2018-10-11T09:26:44.402Z,16.42
2018-10-11T09:27:44.175Z,16.47
2018-10-11T09:28:44.231Z,16.53
2018-10-11T09:29:44.363Z,16.57
2018-10-11T09:30:44.291Z,16.63
2018-10-11T09:31:44.236Z,16.66
2018-10-11T09:32:44.205Z,16.7
2018-10-11T09:33:44.306Z,16.76
2018-10-11T09:34:44.401Z,16.79
2018-10-11T09:35:44.121Z,16.87
2018-10-11T09:36:44.775Z,16.87
2018-10-11T09:37:44.199Z,16.91
2018-10-11T09:38:44.377Z,16.95
2018-10-11T09:39:44.139Z,17
2018-10-11T09:40:44.201Z,17.05
2018-10-11T09:41:46.283Z,17.07
2018-10-11T09:42:44.272Z,17.11
2018-10-11T09:43:44.105Z,17.13
2018-10-11T09:44:44.275Z,17.15
2018-10-11T09:45:44.245Z,17.19
2018-10-11T09:46:44.187Z,17.24
2018-10-11T09:47:44.095Z,17.25
2018-10-11T09:48:44.707Z,17.29
2018-10-11T09:49:44.413Z,17.31
2018-10-11T09:50:45.685Z,17.36
2018-10-11T09:51:44.205Z,17.37
2018-10-11T09:52:44.255Z,17.39
2018-10-11T09:53:44.630Z,17.43
2018-10-11T09:54:44.824Z,17.4
2018-10-11T09:55:44.189Z,17.43
2018-10-11T09:56:44.510Z,17.43
2018-10-11T09:57:44.094Z,17.47
2018-10-11T09:58:44.104Z,17.53
2018-10-11T09:59:44.187Z,17.55
2018-10-11T10:00:44.193Z,17.55
2018-10-11T10:01:44.142Z,17.55
2018-10-11T10:02:44.213Z,17.58
2018-10-11T10:03:44.393Z,17.57
2018-10-11T10:04:44.215Z,17.59
2018-10-11T10:05:44.131Z,17.63
2018-10-11T10:06:44.152Z,17.64
2018-10-11T10:07:44.578Z,17.68
2018-10-11T10:08:44.428Z,17.68
2018-10-11T10:09:44.633Z,17.71
2018-10-11T10:10:44.239Z,17.73
2018-10-11T10:11:44.140Z,17.78
2018-10-11T10:12:44.826Z,17.8
2018-10-11T10:13:44.476Z,17.88
2018-10-11T10:14:44.202Z,17.83
2018-10-11T10:15:45.381Z,17.86
2018-10-11T10:16:44.198Z,17.85
2018-10-11T10:17:44.157Z,17.85
2018-10-11T10:18:44.160Z,17.92
2018-10-11T10:19:44.133Z,17.97
2018-10-11T10:20:44.523Z,17.94
2018-10-11T10:21:45.251Z,17.92
2018-10-11T10:22:44.120Z,17.96
2018-10-11T10:23:44.057Z,17.98
2018-10-11T10:24:44.245Z,18.06
2018-10-11T10:25:47.588Z,18.12
2018-10-11T10:26:44.737Z,18.13
2018-10-11T10:27:44.125Z,18.17
2018-10-11T10:28:44.092Z,18.14
2018-10-11T10:29:44.292Z,18.2
2018-10-11T10:30:44.358Z,18.23
2018-10-11T10:31:45.108Z,18.27
2018-10-11T10:32:45.286Z,18.31
2018-10-11T10:33:44.095Z,18.3
2018-10-11T10:34:44.166Z,18.29
2018-10-11T10:35:44.043Z,18.33
2018-10-11T10:36:44.152Z,18.33
2018-10-11T10:37:44.383Z,18.38
2018-10-11T10:38:44.331Z,18.44
2018-10-11T10:39:44.802Z,18.47
2018-10-11T10:40:44.230Z,18.5
2018-10-11T10:41:44.526Z,18.56
2018-10-11T10:42:44.358Z,18.58
2018-10-11T10:43:44.146Z,18.62
2018-10-11T10:44:44.202Z,18.65
2018-10-11T10:45:44.175Z,18.66
2018-10-11T10:46:44.329Z,18.69
2018-10-11T10:47:44.136Z,18.66
2018-10-11T10:48:45.015Z,18.66
2018-10-11T10:49:44.492Z,18.58
2018-10-11T10:50:44.087Z,18.58
2018-10-11T10:51:44.096Z,18.58
2018-10-11T10:52:44.271Z,18.61
2018-10-11T10:53:44.102Z,18.65
2018-10-11T10:54:44.079Z,18.71
2018-10-11T10:55:44.175Z,18.76
2018-10-11T10:56:44.565Z,18.75
2018-10-11T10:57:44.169Z,18.76
2018-10-11T10:58:44.241Z,18.77
2018-10-11T10:59:44.169Z,18.76
2018-10-11T11:00:44.080Z,18.74
2018-10-11T11:01:44.185Z,18.78
2018-10-11T11:02:44.371Z,18.77
2018-10-11T11:03:44.394Z,18.78
2018-10-11T11:04:44.154Z,18.84
2018-10-11T11:05:44.161Z,18.86
2018-10-11T11:06:44.265Z,18.89
2018-10-11T11:07:44.183Z,18.9
2018-10-11T11:08:44.238Z,18.91
2018-10-11T11:09:44.404Z,18.93
2018-10-11T11:10:44.053Z,18.94
2018-10-11T11:11:44.465Z,18.94
2018-10-11T11:12:47.191Z,18.97
2018-10-11T11:13:44.465Z,18.97
2018-10-11T11:14:44.141Z,18.97
2018-10-11T11:15:44.025Z,19.01
2018-10-11T11:16:44.056Z,19.03
2018-10-11T11:17:44.371Z,19.05
2018-10-11T11:18:44.477Z,19.07
2018-10-11T11:19:44.580Z,19.09
2018-10-11T11:20:44.215Z,19.09
2018-10-11T11:21:44.284Z,19.06
2018-10-11T11:22:44.023Z,19.11
2018-10-11T11:23:44.120Z,19.15
2018-10-11T11:24:44.217Z,19.19
2018-10-11T11:25:43.970Z,19.26
2018-10-11T11:26:44.243Z,19.29
2018-10-11T11:27:44.351Z,19.35
2018-10-11T11:28:44.158Z,19.37
2018-10-11T11:29:44.058Z,19.39
2018-10-11T11:30:44.272Z,19.42
2018-10-11T11:31:44.451Z,19.45
2018-10-11T11:32:44.358Z,19.5
2018-10-11T11:33:44.273Z,19.55
2018-10-11T11:34:44.003Z,19.49
2018-10-11T11:35:44.043Z,19.55
2018-10-11T11:36:44.215Z,19.56
2018-10-11T11:37:43.985Z,19.59
2018-10-11T11:38:44.109Z,19.6
2018-10-11T11:39:44.102Z,19.61
2018-10-11T11:40:44.049Z,19.61
2018-10-11T11:41:44.000Z,19.58
2018-10-11T11:42:44.027Z,19.61
2018-10-11T11:43:43.972Z,19.61
2018-10-11T11:44:43.969Z,19.62
2018-10-11T11:45:44.475Z,19.67
2018-10-11T11:46:44.478Z,19.68
2018-10-11T11:47:43.987Z,19.68
2018-10-11T11:48:43.938Z,19.69
2018-10-11T11:49:43.968Z,19.69
2018-10-11T11:50:44.087Z,19.69
2018-10-11T11:51:44.035Z,19.67
2018-10-11T11:52:43.970Z,19.66
2018-10-11T11:53:43.988Z,19.66
2018-10-11T11:54:44.346Z,19.63
2018-10-11T11:55:43.975Z,19.67
2018-10-11T11:56:43.942Z,19.65
2018-10-11T11:57:44.157Z,19.64
2018-10-11T11:58:44.268Z,19.66
2018-10-11T11:59:44.266Z,19.64
2018-10-11T12:00:43.953Z,19.67
2018-10-11T12:01:44.030Z,19.71
2018-10-11T12:02:44.724Z,19.74
2018-10-11T12:03:44.100Z,19.73
2018-10-11T12:04:44.153Z,19.69
2018-10-11T12:05:43.985Z,19.7
2018-10-11T12:06:44.061Z,19.67
2018-10-11T12:07:44.089Z,19.68
2018-10-11T12:08:44.225Z,19.7
2018-10-11T12:09:44.032Z,19.75
2018-10-11T12:10:44.497Z,19.78
2018-10-11T12:11:44.235Z,19.78
2018-10-11T12:12:43.946Z,19.82
2018-10-11T12:13:43.972Z,19.85
2018-10-11T12:14:43.911Z,19.87
2018-10-11T12:15:43.981Z,19.88
2018-10-11T12:16:45.222Z,19.89
2018-10-11T12:17:44.034Z,19.84
2018-10-11T12:18:43.931Z,19.82
2018-10-11T12:19:43.913Z,19.84
2018-10-11T12:20:44.219Z,19.87
2018-10-11T12:21:44.328Z,19.88
2018-10-11T12:22:44.035Z,19.9
2018-10-11T12:23:44.150Z,19.9
2018-10-11T12:24:44.442Z,19.9
2018-10-11T12:25:44.011Z,19.93
2018-10-11T12:26:44.168Z,19.91
2018-10-11T12:27:44.247Z,19.89
2018-10-11T12:28:44.894Z,19.9
2018-10-11T12:29:43.935Z,19.93
2018-10-11T12:30:44.237Z,19.9
2018-10-11T12:31:43.959Z,19.93
2018-10-11T12:32:44.080Z,19.95
2018-10-11T12:33:44.221Z,19.95
2018-10-11T12:34:43.917Z,19.96
2018-10-11T12:35:43.992Z,19.97
2018-10-11T12:36:43.922Z,20.01
2018-10-11T12:37:44.588Z,20.02
2018-10-11T12:38:45.131Z,20.02
2018-10-11T12:39:44.086Z,20.06
2018-10-11T12:40:44.025Z,20.07
2018-10-11T12:41:44.038Z,20.07
2018-10-11T12:42:43.929Z,20.07
2018-10-11T12:43:44.360Z,20.07
2018-10-11T12:44:43.971Z,20.11
2018-10-11T12:45:44.284Z,20.08
2018-10-11T12:46:44.221Z,20.11
2018-10-11T12:47:44.287Z,20.08
2018-10-11T12:48:43.940Z,20.09
2018-10-11T12:49:49.913Z,20.08
2018-10-11T12:50:43.899Z,20.06
2018-10-11T12:51:45.925Z,20.05
2018-10-11T12:52:44.012Z,20.04
2018-10-11T12:53:48.896Z,20.03
2018-10-11T12:54:44.263Z,20.03
2018-10-11T12:55:43.888Z,20.04
2018-10-11T12:56:46.728Z,20.02
2018-10-11T12:57:44.249Z,20.01
2018-10-11T12:58:43.960Z,20.02
2018-10-11T12:59:43.852Z,19.99
2018-10-11T13:00:44.433Z,20
2018-10-11T13:01:44.208Z,19.99
2018-10-11T13:02:45.008Z,19.98
2018-10-11T13:03:44.253Z,19.96
2018-10-11T13:04:43.878Z,19.93
2018-10-11T13:05:43.842Z,19.9
2018-10-11T13:06:45.678Z,19.88